Time;durP1;ratioP1;P1;durP2;ratioP2;P2;SDS_P1;SDS_P2;PMS_P1;PMS_P2;Temp;Humidity;BMP_temperature;BMP_pressure;BME280_temperature;BME280_humidity;BME280_pressure;Samples;Min_cycle;Max_cycle;Signal;HPM_P1;HPM_P2
2021/11/28 00:01:10;;;;;;;9.17;4.57;;;0.50;99.90;;;;;;5071918;28;20241;-75
2021/11/28 00:03:38;;;;;;;7.73;4.20;;;0.60;99.90;;;;;;5072414;28;20206;-76
2021/11/28 00:06:05;;;;;;;11.60;5.17;;;0.50;99.90;;;;;;5074700;28;20198;-75
2021/11/28 00:11:25;;;;;;;9.63;4.83;;;0.50;99.90;;;;;;5055466;28;20210;-76
2021/11/28 00:14:05;;;;;;;7.90;4.00;;;0.40;99.90;;;;;;5072652;28;20203;-76
2021/11/28 00:16:33;;;;;;;12.70;4.03;;;0.30;99.90;;;;;;5075348;28;20229;-76
2021/11/28 00:19:00;;;;;;;8.43;4.03;;;0.40;99.90;;;;;;5073274;28;20564;-75
2021/11/28 00:21:27;;;;;;;13.53;5.27;;;0.30;99.90;;;;;;5074308;28;21543;-76
2021/11/28 00:23:54;;;;;;;10.87;4.47;;;0.20;99.90;;;;;;5076112;28;20202;-76
2021/11/28 00:26:21;;;;;;;7.87;3.97;;;0.10;99.90;;;;;;5070892;28;20653;-76
2021/11/28 00:28:48;;;;;;;6.40;3.93;;;0.00;99.90;;;;;;5072240;28;20195;-76
2021/11/28 00:31:16;;;;;;;7.37;4.30;;;-0.10;99.90;;;;;;5072607;28;20356;-76
2021/11/28 00:33:43;;;;;;;10.10;4.57;;;-0.10;99.90;;;;;;5071826;28;20203;-76
2021/11/28 00:36:11;;;;;;;9.87;4.23;;;-0.10;99.90;;;;;;5073993;28;20207;-76
2021/11/28 00:38:38;;;;;;;9.70;3.93;;;-0.10;99.90;;;;;;5074683;28;20200;-76
2021/11/28 00:41:05;;;;;;;8.30;4.30;;;0.00;99.90;;;;;;5072358;28;20280;-76
2021/11/28 00:43:32;;;;;;;9.73;4.60;;;0.10;99.90;;;;;;5074510;28;20199;-76
2021/11/28 00:45:59;;;;;;;7.10;4.30;;;-0.10;99.90;;;;;;5071769;28;20208;-76
2021/11/28 00:48:30;;;;;;;14.03;4.87;;;-0.10;99.90;;;;;;5074509;28;20199;-76
2021/11/28 00:51:21;;;;;;;10.43;4.27;;;-0.20;99.90;;;;;;5066872;28;20585;-76
2021/11/28 00:53:50;;;;;;;7.13;4.27;;;0.00;99.90;;;;;;5071880;28;20234;-73
2021/11/28 00:56:18;;;;;;;9.80;4.30;;;0.00;99.90;;;;;;5070420;28;20203;-71
2021/11/28 00:58:45;;;;;;;7.97;4.17;;;-0.10;99.90;;;;;;5072299;28;20206;-71
2021/11/28 01:01:12;;;;;;;11.07;4.40;;;-0.20;99.90;;;;;;5068842;28;20247;-71
2021/11/28 01:03:40;;;;;;;8.53;4.00;;;-0.10;99.90;;;;;;5070079;28;20198;-71
2021/11/28 01:06:07;;;;;;;10.87;3.90;;;0.10;99.90;;;;;;5074988;28;20645;-71
2021/11/28 01:08:34;;;;;;;8.47;3.70;;;0.20;99.90;;;;;;5075816;28;20682;-71
2021/11/28 01:11:01;;;;;;;7.57;4.27;;;0.20;99.90;;;;;;5072757;28;20222;-71
2021/11/28 01:13:28;;;;;;;8.73;3.93;;;0.20;99.90;;;;;;5071095;28;20584;-71
2021/11/28 01:15:55;;;;;;;11.07;3.80;;;0.10;99.90;;;;;;5071207;28;20204;-71
2021/11/28 01:18:23;;;;;;;10.17;4.13;;;0.20;99.90;;;;;;5072546;28;20566;-71
2021/11/28 01:20:51;;;;;;;8.00;4.07;;;0.10;99.90;;;;;;5073610;28;20198;-71
2021/11/28 01:23:18;;;;;;;6.57;3.70;;;0.30;99.90;;;;;;5074931;28;20198;-71
2021/11/28 01:25:45;;;;;;;9.40;4.03;;;0.20;99.90;;;;;;5074245;28;20205;-71
2021/11/28 01:28:12;;;;;;;9.40;3.97;;;0.10;99.90;;;;;;5069094;28;20699;-71
2021/11/28 01:30:39;;;;;;;8.67;3.70;;;0.00;99.90;;;;;;5069168;28;20216;-71
2021/11/28 01:33:06;;;;;;;8.47;3.93;;;0.10;99.90;;;;;;5070925;28;20206;-71
2021/11/28 01:35:35;;;;;;;8.57;4.10;;;0.00;99.90;;;;;;5072385;28;20248;-72
2021/11/28 01:38:03;;;;;;;6.10;3.93;;;0.00;99.90;;;;;;5073897;28;20644;-71
2021/11/28 01:40:31;;;;;;;7.97;3.60;;;0.20;99.90;;;;;;5074014;28;20569;-71
2021/11/28 01:43:03;;;;;;;8.80;3.57;;;0.20;99.90;;;;;;5074928;28;20203;-71
2021/11/28 01:45:32;;;;;;;9.57;3.83;;;0.30;99.90;;;;;;5069620;28;20332;-71
2021/11/28 01:48:03;;;;;;;7.00;3.70;;;0.30;99.90;;;;;;5073956;28;20659;-71
2021/11/28 01:50:32;;;;;;;11.63;4.87;;;0.30;99.90;;;;;;5070862;28;20567;-71
2021/11/28 01:53:01;;;;;;;11.20;4.63;;;0.10;99.90;;;;;;5073552;28;20204;-71
2021/11/28 01:55:32;;;;;;;8.87;3.97;;;0.00;99.90;;;;;;5069475;28;20661;-71
2021/11/28 01:57:59;;;;;;;12.20;4.20;;;0.00;99.90;;;;;;5071444;28;20571;-71
2021/11/28 02:00:29;;;;;;;9.27;4.60;;;0.00;99.90;;;;;;5068711;28;20204;-71
2021/11/28 02:02:58;;;;;;;9.83;4.10;;;-0.10;99.90;;;;;;5063490;28;20231;-71
2021/11/28 02:05:27;;;;;;;9.20;4.53;;;0.10;99.90;;;;;;5070402;28;20210;-71
2021/11/28 02:07:54;;;;;;;11.37;5.07;;;0.10;99.90;;;;;;5076751;28;20275;-71
2021/11/28 02:10:21;;;;;;;17.13;5.60;;;0.00;99.90;;;;;;5061326;28;20210;-71
2021/11/28 02:12:49;;;;;;;8.97;4.40;;;0.00;99.90;;;;;;5065218;28;20222;-71
2021/11/28 02:15:18;;;;;;;7.43;4.10;;;0.00;99.90;;;;;;5056362;28;20190;-71
2021/11/28 02:17:49;;;;;;;13.27;4.73;;;0.00;99.90;;;;;;5070214;28;20224;-71
2021/11/28 02:20:16;;;;;;;8.67;4.00;;;-0.10;99.90;;;;;;5065837;28;20195;-71
2021/11/28 02:22:44;;;;;;;10.63;4.43;;;-0.10;99.90;;;;;;5070410;28;20582;-71
2021/11/28 02:25:12;;;;;;;10.90;4.50;;;0.10;99.90;;;;;;5054344;28;20202;-71
2021/11/28 02:27:39;;;;;;;11.40;5.30;;;0.20;99.90;;;;;;5067727;28;20561;-71
2021/11/28 02:30:09;;;;;;;9.77;4.43;;;0.20;99.90;;;;;;5052258;28;20654;-71
2021/11/28 02:32:36;;;;;;;10.67;4.80;;;0.20;99.90;;;;;;5064970;28;20697;-71
2021/11/28 02:35:04;;;;;;;8.47;4.30;;;0.20;99.90;;;;;;5064896;28;20195;-71
2021/11/28 02:37:31;;;;;;;10.27;4.53;;;0.20;99.90;;;;;;5071186;28;20206;-71
2021/11/28 02:39:59;;;;;;;9.23;4.83;;;0.30;99.90;;;;;;5071353;28;20627;-71
2021/11/28 02:42:26;;;;;;;8.97;4.47;;;0.20;99.90;;;;;;5061097;28;20190;-71
2021/11/28 02:44:53;;;;;;;10.23;5.17;;;0.30;99.90;;;;;;5069227;28;20195;-71
2021/11/28 02:47:21;;;;;;;10.27;4.60;;;0.30;99.90;;;;;;5065249;28;20203;-71
2021/11/28 02:49:48;;;;;;;9.70;4.57;;;0.20;99.90;;;;;;5071452;28;20350;-71
2021/11/28 02:52:16;;;;;;;7.07;4.20;;;0.10;99.90;;;;;;5059878;28;20680;-71
2021/11/28 02:54:43;;;;;;;9.10;4.50;;;0.00;99.90;;;;;;5051767;28;20608;-71
2021/11/28 02:57:11;;;;;;;10.23;4.43;;;0.10;99.90;;;;;;5064521;28;20205;-71
2021/11/28 02:59:38;;;;;;;12.47;5.03;;;0.30;99.90;;;;;;5065177;28;20667;-71
2021/11/28 03:02:06;;;;;;;11.40;6.63;;;0.30;99.90;;;;;;5068526;28;20203;-71
2021/11/28 03:04:33;;;;;;;10.67;4.93;;;0.40;99.90;;;;;;5065915;28;20214;-72
2021/11/28 03:06:59;;;;;;;9.50;5.00;;;0.50;99.90;;;;;;5067761;28;20652;-71
2021/11/28 03:09:26;;;;;;;8.23;4.67;;;0.50;99.90;;;;;;5070360;28;20195;-71
2021/11/28 03:11:53;;;;;;;10.30;4.60;;;0.60;99.90;;;;;;5063087;28;20685;-71
2021/11/28 03:14:21;;;;;;;9.83;5.00;;;0.60;99.90;;;;;;5069879;28;20198;-71
2021/11/28 03:16:48;;;;;;;10.57;4.60;;;0.60;99.90;;;;;;5064542;28;20688;-71
2021/11/28 03:19:15;;;;;;;10.07;4.23;;;0.50;99.90;;;;;;5069565;28;20191;-71
2021/11/28 03:21:42;;;;;;;11.23;5.20;;;0.50;99.90;;;;;;5057231;28;20206;-71
2021/11/28 03:24:10;;;;;;;8.40;4.40;;;0.60;99.90;;;;;;5064564;28;20199;-71
2021/11/28 03:26:39;;;;;;;8.90;4.80;;;0.80;99.90;;;;;;5056549;28;20191;-71
2021/11/28 03:29:09;;;;;;;11.27;4.73;;;0.80;99.90;;;;;;5058520;28;20211;-71
2021/11/28 03:31:41;;;;;;;9.73;4.60;;;0.80;99.90;;;;;;5065485;28;20689;-71
2021/11/28 03:34:10;;;;;;;13.30;4.70;;;0.80;99.90;;;;;;5069954;28;20205;-71
2021/11/28 03:36:40;;;;;;;9.80;4.70;;;0.80;99.90;;;;;;5072571;28;20202;-71
2021/11/28 03:39:11;;;;;;;8.47;4.77;;;0.80;99.90;;;;;;5073605;28;20209;-71
2021/11/28 03:41:39;;;;;;;8.80;4.47;;;0.70;99.90;;;;;;5056917;28;20289;-71
2021/11/28 03:44:07;;;;;;;9.80;4.80;;;0.80;99.90;;;;;;5068536;28;20210;-71
2021/11/28 03:46:37;;;;;;;9.83;4.60;;;0.80;99.90;;;;;;5054459;28;20205;-71
2021/11/28 03:49:04;;;;;;;9.57;4.23;;;0.80;99.90;;;;;;5062501;28;20205;-71
2021/11/28 03:51:32;;;;;;;10.70;5.30;;;0.90;99.90;;;;;;5073513;28;20226;-71
2021/11/28 03:53:59;;;;;;;10.10;4.90;;;0.80;99.90;;;;;;5071338;28;20204;-71
2021/11/28 03:56:26;;;;;;;7.97;4.70;;;0.90;99.90;;;;;;5073246;28;20194;-71
2021/11/28 03:58:53;;;;;;;12.17;5.27;;;1.00;99.90;;;;;;5072345;28;20198;-71
2021/11/28 04:01:21;;;;;;;10.30;4.60;;;1.00;99.90;;;;;;5073199;28;20198;-71
2021/11/28 04:03:50;;;;;;;10.47;4.60;;;1.00;99.90;;;;;;5072877;28;20588;-71
2021/11/28 04:06:19;;;;;;;11.90;5.70;;;1.00;99.90;;;;;;5061917;28;20200;-71
2021/11/28 04:08:46;;;;;;;8.20;4.33;;;1.00;99.90;;;;;;5054647;28;20234;-71
2021/11/28 04:11:13;;;;;;;9.47;4.40;;;0.90;99.90;;;;;;5072247;28;20213;-71
2021/11/28 04:13:40;;;;;;;13.57;4.93;;;1.00;99.90;;;;;;5056474;28;20688;-71
2021/11/28 04:16:07;;;;;;;10.43;5.43;;;0.90;99.90;;;;;;5061794;28;20199;-71
2021/11/28 04:18:34;;;;;;;8.87;4.90;;;1.00;99.90;;;;;;5073051;28;20200;-71
2021/11/28 04:21:02;;;;;;;8.80;4.47;;;1.00;99.90;;;;;;5071423;28;20221;-71
2021/11/28 04:23:29;;;;;;;10.00;5.43;;;1.00;99.90;;;;;;5071638;28;20766;-71
2021/11/28 04:25:56;;;;;;;8.27;4.50;;;0.80;99.90;;;;;;5069910;28;20191;-73
2021/11/28 04:28:23;;;;;;;9.43;4.80;;;0.80;99.90;;;;;;5071543;28;20221;-73
2021/11/28 04:30:50;;;;;;;10.53;4.70;;;0.90;99.90;;;;;;5059301;28;20198;-73
2021/11/28 04:33:16;;;;;;;9.57;4.47;;;0.80;99.90;;;;;;5062955;28;20687;-73
2021/11/28 04:35:43;;;;;;;12.87;4.87;;;0.70;99.90;;;;;;5069446;28;20203;-73
2021/11/28 04:38:12;;;;;;;7.43;4.13;;;0.60;99.90;;;;;;5072932;28;20238;-73
2021/11/28 04:40:39;;;;;;;7.10;3.97;;;0.50;99.90;;;;;;5071673;28;20220;-73
2021/11/28 04:43:06;;;;;;;9.73;4.03;;;0.50;99.90;;;;;;5069559;28;20199;-73
2021/11/28 04:45:33;;;;;;;8.10;4.20;;;0.50;99.90;;;;;;5054941;28;20204;-73
2021/11/28 04:47:59;;;;;;;9.10;4.27;;;0.50;99.90;;;;;;5060185;28;20545;-73
2021/11/28 04:50:27;;;;;;;8.53;4.80;;;0.50;99.90;;;;;;5056524;28;20200;-73
2021/11/28 04:52:54;;;;;;;8.30;4.53;;;0.60;99.90;;;;;;5061448;28;20218;-73
2021/11/28 04:55:22;;;;;;;9.70;4.40;;;0.60;99.90;;;;;;5072250;28;20583;-73
2021/11/28 04:57:49;;;;;;;9.37;4.20;;;0.70;99.90;;;;;;5072576;28;20206;-73
2021/11/28 05:00:19;;;;;;;11.63;4.43;;;0.80;99.90;;;;;;5056390;28;20206;-73
2021/11/28 05:02:46;;;;;;;8.03;4.27;;;0.70;99.90;;;;;;5053757;28;20191;-73
2021/11/28 05:05:14;;;;;;;10.30;5.23;;;0.80;99.90;;;;;;5066526;28;20221;-73
2021/11/28 05:07:41;;;;;;;10.03;4.53;;;0.80;99.90;;;;;;5056846;28;20198;-73
2021/11/28 05:10:09;;;;;;;10.00;3.90;;;0.80;99.90;;;;;;5063436;28;20211;-73
2021/11/28 05:12:38;;;;;;;8.70;4.00;;;0.90;99.90;;;;;;5068371;28;20592;-73
2021/11/28 05:15:06;;;;;;;8.33;4.47;;;0.90;99.90;;;;;;5070827;28;20209;-73
2021/11/28 05:17:32;;;;;;;9.60;4.60;;;0.80;99.90;;;;;;5056841;28;20211;-73
2021/11/28 05:20:00;;;;;;;8.37;4.40;;;0.80;99.90;;;;;;5066742;28;20539;-73
2021/11/28 05:22:28;;;;;;;10.30;4.97;;;0.90;99.90;;;;;;5072201;28;20603;-73
2021/11/28 05:24:55;;;;;;;9.77;4.00;;;0.90;99.90;;;;;;5069042;28;20198;-73
2021/11/28 05:27:22;;;;;;;10.17;4.50;;;0.90;99.90;;;;;;5069641;28;20190;-73
2021/11/28 05:29:51;;;;;;;23.10;6.60;;;0.90;99.90;;;;;;5072639;28;20206;-73
2021/11/28 05:32:18;;;;;;;11.37;4.53;;;0.80;99.90;;;;;;5071088;28;20222;-73
2021/11/28 05:34:45;;;;;;;11.07;3.93;;;0.70;99.90;;;;;;5072101;28;20241;-73
2021/11/28 05:37:13;;;;;;;8.50;4.23;;;0.70;99.90;;;;;;5074244;28;20198;-73
2021/11/28 05:39:40;;;;;;;9.40;4.70;;;0.70;99.90;;;;;;5077848;28;20198;-73
2021/11/28 05:42:07;;;;;;;8.83;4.47;;;0.70;99.90;;;;;;5076005;28;20624;-73
2021/11/28 05:44:34;;;;;;;11.37;4.97;;;0.70;99.90;;;;;;5076092;28;20202;-73
2021/11/28 05:47:02;;;;;;;10.83;4.37;;;0.80;99.90;;;;;;5074089;28;20671;-73
2021/11/28 05:49:29;;;;;;;9.50;4.30;;;0.80;99.90;;;;;;5067188;28;20571;-73
2021/11/28 05:51:56;;;;;;;9.73;4.40;;;0.80;99.90;;;;;;5078083;28;20198;-73
2021/11/28 05:54:23;;;;;;;8.73;4.27;;;0.70;99.90;;;;;;5072730;28;20554;-73
2021/11/28 05:56:50;;;;;;;7.20;4.20;;;0.70;99.90;;;;;;5073473;28;20206;-74
2021/11/28 05:59:17;;;;;;;10.00;4.63;;;0.80;99.90;;;;;;5075948;28;20201;-73
2021/11/28 06:01:44;;;;;;;8.53;4.40;;;0.70;99.90;;;;;;5067771;28;20203;-73
2021/11/28 06:04:12;;;;;;;8.63;4.70;;;0.70;99.90;;;;;;5071774;28;20218;-73
2021/11/28 06:06:39;;;;;;;7.73;4.30;;;0.90;99.90;;;;;;5069718;28;20208;-73
2021/11/28 06:09:06;;;;;;;9.43;4.37;;;0.90;99.90;;;;;;5075545;28;20675;-73
2021/11/28 06:11:33;;;;;;;7.77;4.60;;;0.90;99.90;;;;;;5076355;28;20202;-73
2021/11/28 06:14:00;;;;;;;7.33;4.50;;;0.90;99.90;;;;;;5073383;28;20665;-73
2021/11/28 06:16:27;;;;;;;7.00;4.30;;;1.00;99.90;;;;;;5074850;28;20198;-73
2021/11/28 06:18:54;;;;;;;13.10;4.60;;;1.00;99.90;;;;;;5074951;28;20583;-73
2021/11/28 06:21:22;;;;;;;10.77;4.20;;;0.90;99.90;;;;;;5071873;28;20224;-73
2021/11/28 06:23:49;;;;;;;10.27;4.50;;;0.90;99.90;;;;;;5076328;28;20727;-74
2021/11/28 06:26:16;;;;;;;6.47;4.20;;;0.80;99.90;;;;;;5077494;28;20207;-73
2021/11/28 06:28:43;;;;;;;10.40;5.30;;;0.80;99.90;;;;;;5067534;28;20210;-73
2021/11/28 06:31:10;;;;;;;6.37;4.37;;;0.90;99.90;;;;;;5074448;28;20547;-73
2021/11/28 06:33:37;;;;;;;10.90;5.33;;;0.90;99.90;;;;;;5077827;28;20225;-74
2021/11/28 06:36:04;;;;;;;12.47;5.60;;;0.90;99.90;;;;;;5076254;28;20766;-73
2021/11/28 06:38:34;;;;;;;11.53;6.00;;;0.90;99.90;;;;;;5073693;28;20202;-73
2021/11/28 06:41:01;;;;;;;10.93;6.13;;;1.00;99.90;;;;;;5076663;28;20649;-73
2021/11/28 06:43:28;;;;;;;17.20;7.30;;;1.00;99.90;;;;;;5075045;28;20191;-73
2021/11/28 06:45:55;;;;;;;13.53;6.50;;;0.90;99.90;;;;;;5070781;28;20194;-73
2021/11/28 06:48:22;;;;;;;10.87;5.87;;;0.90;99.90;;;;;;5076445;28;20202;-73
2021/11/28 06:50:49;;;;;;;14.87;7.30;;;0.90;99.90;;;;;;5075728;28;20197;-73
2021/11/28 06:53:17;;;;;;;15.03;7.43;;;0.90;99.90;;;;;;5073184;28;20709;-73
2021/11/28 06:55:45;;;;;;;15.53;7.20;;;0.90;99.90;;;;;;5070881;28;20201;-73
2021/11/28 06:58:12;;;;;;;17.43;8.07;;;0.90;99.90;;;;;;5080751;28;20207;-73
2021/11/28 07:00:39;;;;;;;15.63;8.07;;;0.90;99.90;;;;;;5074613;28;20649;-73
2021/11/28 07:03:05;;;;;;;15.47;7.70;;;1.00;99.90;;;;;;5077944;28;20220;-73
2021/11/28 07:05:32;;;;;;;15.57;7.77;;;0.90;99.90;;;;;;5075649;28;20641;-73
2021/11/28 07:07:59;;;;;;;17.87;8.03;;;1.00;99.90;;;;;;5076564;28;20224;-73
2021/11/28 07:10:26;;;;;;;16.23;8.13;;;1.00;99.90;;;;;;5079432;28;20198;-73
2021/11/28 07:12:54;;;;;;;18.57;8.23;;;1.00;99.90;;;;;;5080825;28;20232;-73
2021/11/28 07:15:21;;;;;;;16.70;8.83;;;1.10;99.90;;;;;;5082745;28;20212;-73
2021/11/28 07:17:48;;;;;;;16.00;8.47;;;1.20;99.90;;;;;;5071507;28;20562;-73
2021/11/28 07:20:15;;;;;;;15.83;8.07;;;1.30;99.90;;;;;;5077635;28;20198;-73
2021/11/28 07:22:41;;;;;;;15.73;8.33;;;1.40;99.90;;;;;;5076229;28;20205;-73
2021/11/28 07:25:09;;;;;;;15.20;7.83;;;1.40;99.90;;;;;;5072050;28;20202;-74
2021/11/28 07:27:36;;;;;;;15.00;7.67;;;1.50;99.90;;;;;;5076622;28;20202;-74
2021/11/28 07:30:06;;;;;;;16.30;7.90;;;1.50;99.90;;;;;;5077286;28;20667;-73
2021/11/28 07:32:33;;;;;;;15.23;7.80;;;1.50;99.90;;;;;;5073549;28;20202;-73
2021/11/28 07:35:00;;;;;;;13.80;7.47;;;1.60;99.90;;;;;;5072891;28;20559;-74
2021/11/28 07:37:27;;;;;;;21.83;11.50;;;1.60;99.90;;;;;;5074121;28;20205;-73
2021/11/28 07:39:54;;;;;;;15.97;8.80;;;1.60;99.90;;;;;;5073923;28;20598;-73
2021/11/28 07:42:21;;;;;;;14.37;7.93;;;1.70;99.90;;;;;;5073247;28;20542;-73
2021/11/28 07:44:48;;;;;;;17.67;8.20;;;1.70;99.90;;;;;;5070896;28;20194;-73
2021/11/28 07:47:16;;;;;;;13.77;7.37;;;1.80;99.90;;;;;;5078868;28;20220;-73
2021/11/28 07:49:43;;;;;;;13.77;7.50;;;1.80;99.90;;;;;;5069343;28;20194;-73
2021/11/28 07:52:10;;;;;;;13.53;7.30;;;1.90;99.90;;;;;;5078540;28;20194;-73
2021/11/28 07:54:37;;;;;;;16.90;7.80;;;1.90;99.90;;;;;;5074465;28;20206;-73
2021/11/28 07:57:04;;;;;;;17.60;7.53;;;1.90;99.90;;;;;;5076695;28;20198;-73
2021/11/28 07:59:33;;;;;;;16.57;8.80;;;2.00;99.90;;;;;;5072794;28;20198;-73
2021/11/28 08:02:00;;;;;;;19.20;8.00;;;2.00;99.90;;;;;;5075444;28;20209;-73
2021/11/28 08:04:29;;;;;;;19.40;9.50;;;2.20;99.90;;;;;;5077709;28;20202;-73
2021/11/28 08:06:56;;;;;;;17.67;8.27;;;2.40;99.90;;;;;;5076668;28;20205;-73
2021/11/28 08:09:23;;;;;;;18.93;8.30;;;2.60;99.90;;;;;;5072600;28;20194;-73
2021/11/28 08:11:50;;;;;;;14.97;8.27;;;2.60;99.90;;;;;;5077510;28;20203;-73
2021/11/28 08:14:17;;;;;;;14.13;7.50;;;2.40;99.90;;;;;;5077075;28;20700;-73
2021/11/28 08:16:43;;;;;;;16.03;8.10;;;2.40;99.90;;;;;;5071845;28;20201;-73
2021/11/28 08:19:10;;;;;;;17.47;7.97;;;2.30;99.90;;;;;;5078053;28;20221;-73
2021/11/28 08:21:39;;;;;;;16.20;8.33;;;2.50;99.90;;;;;;5078638;28;20196;-73
2021/11/28 08:24:06;;;;;;;17.80;8.40;;;2.70;99.90;;;;;;5078242;28;20205;-73
2021/11/28 08:26:35;;;;;;;16.80;8.00;;;2.50;99.90;;;;;;5073309;28;20224;-73
2021/11/28 08:29:03;;;;;;;15.27;7.50;;;2.40;99.90;;;;;;5076468;28;20200;-73
2021/11/28 08:31:29;;;;;;;17.90;7.77;;;2.40;99.90;;;;;;5072994;28;20284;-73
2021/11/28 08:33:56;;;;;;;15.33;8.53;;;2.40;99.90;;;;;;5075730;28;20214;-73
2021/11/28 08:36:23;;;;;;;17.87;8.40;;;2.40;99.90;;;;;;5078879;28;20228;-73
2021/11/28 08:38:53;;;;;;;16.53;8.40;;;2.40;99.90;;;;;;5075281;28;20294;-73
2021/11/28 08:41:22;;;;;;;13.70;7.60;;;2.50;99.90;;;;;;5074037;28;20202;-73
2021/11/28 08:43:51;;;;;;;14.77;8.70;;;2.60;99.90;;;;;;5077323;28;20652;-73
2021/11/28 08:46:19;;;;;;;16.70;8.53;;;2.60;99.90;;;;;;5079932;28;20254;-73
2021/11/28 08:48:47;;;;;;;19.53;9.43;;;2.70;99.90;;;;;;5070430;28;20202;-73
2021/11/28 08:51:14;;;;;;;18.07;8.63;;;2.60;99.90;;;;;;5069967;28;20206;-73
2021/11/28 08:53:43;;;;;;;18.77;9.10;;;2.60;99.90;;;;;;5075587;28;20214;-73
2021/11/28 08:56:11;;;;;;;17.43;9.07;;;2.60;99.90;;;;;;5071354;28;20652;-73
2021/11/28 08:58:39;;;;;;;19.43;9.00;;;2.70;99.90;;;;;;5071781;28;20285;-73
2021/11/28 09:01:06;;;;;;;19.57;10.03;;;2.80;99.90;;;;;;5074261;28;20199;-73
2021/11/28 09:03:33;;;;;;;21.27;9.23;;;2.80;99.90;;;;;;5071793;28;20634;-73
2021/11/28 09:06:00;;;;;;;19.27;10.10;;;2.80;99.90;;;;;;5068774;28;20206;-73
2021/11/28 09:08:27;;;;;;;18.40;9.43;;;3.10;99.90;;;;;;5070229;28;20206;-74
2021/11/28 09:10:54;;;;;;;18.20;9.67;;;3.30;99.90;;;;;;5077031;28;20212;-73
2021/11/28 09:13:22;;;;;;;16.70;8.60;;;4.10;99.90;;;;;;5067501;28;20924;-74
2021/11/28 09:15:49;;;;;;;15.57;9.03;;;4.30;99.90;;;;;;5071740;28;20639;-74
2021/11/28 09:18:19;;;;;;;16.87;8.97;;;3.90;99.90;;;;;;5069910;28;20206;-73
2021/11/28 09:20:50;;;;;;;16.30;8.63;;;3.30;99.90;;;;;;5068328;28;20206;-74
2021/11/28 09:26:02;;;;;;;13.87;8.23;;;3.00;99.90;;;;;;5071739;28;20280;-73
2021/11/28 09:28:30;;;;;;;17.23;8.33;;;3.10;99.90;;;;;;5073187;28;20229;-74
2021/11/28 09:30:57;;;;;;;16.40;9.17;;;3.10;99.90;;;;;;5074102;28;20202;-74
2021/11/28 09:33:23;;;;;;;17.63;9.43;;;3.00;99.90;;;;;;5073421;28;20222;-73
2021/11/28 09:35:50;;;;;;;16.47;8.73;;;3.10;99.90;;;;;;5070969;28;21123;-73
2021/11/28 09:38:18;;;;;;;16.17;8.37;;;3.00;99.90;;;;;;5070141;28;20662;-73
2021/11/28 09:40:46;;;;;;;17.23;9.37;;;3.10;99.90;;;;;;5063168;28;20210;-73
2021/11/28 09:43:14;;;;;;;19.33;9.43;;;3.10;99.90;;;;;;5065028;28;20202;-73
2021/11/28 09:45:45;;;;;;;18.13;8.50;;;3.20;99.90;;;;;;5072676;28;21032;-73
2021/11/28 09:48:12;;;;;;;14.57;8.73;;;3.20;99.90;;;;;;5076137;28;20213;-73
2021/11/28 09:50:40;;;;;;;25.13;12.97;;;3.20;99.90;;;;;;5066976;28;20206;-73
2021/11/28 09:53:07;;;;;;;19.10;9.60;;;3.20;99.90;;;;;;5067023;28;20293;-73
2021/11/28 09:55:34;;;;;;;16.77;9.40;;;3.20;99.90;;;;;;5070247;28;20568;-73
2021/11/28 09:58:03;;;;;;;16.87;8.97;;;3.20;99.90;;;;;;5067630;28;20210;-73
2021/11/28 10:00:31;;;;;;;16.53;9.03;;;3.30;99.90;;;;;;5071753;28;20218;-73
2021/11/28 10:03:00;;;;;;;17.87;9.13;;;3.40;99.90;;;;;;5070531;28;20233;-73
2021/11/28 10:05:27;;;;;;;18.63;8.93;;;3.40;99.90;;;;;;5067667;28;20264;-73
2021/11/28 10:07:53;;;;;;;19.23;9.07;;;3.50;99.90;;;;;;5065221;28;20684;-73
2021/11/28 10:10:22;;;;;;;18.73;9.17;;;3.50;99.90;;;;;;5071900;28;20210;-73
2021/11/28 10:12:53;;;;;;;15.47;8.13;;;3.60;99.90;;;;;;5069626;28;20206;-73
2021/11/28 10:15:23;;;;;;;17.27;9.37;;;3.60;99.90;;;;;;5073649;28;20309;-74
2021/11/28 10:17:50;;;;;;;19.93;8.90;;;3.50;99.90;;;;;;5075159;28;20194;-70
2021/11/28 10:20:21;;;;;;;18.13;8.90;;;3.50;99.90;;;;;;5071835;28;20210;-70
2021/11/28 10:22:49;;;;;;;17.80;8.77;;;3.60;99.90;;;;;;5072308;28;20202;-70
2021/11/28 10:25:17;;;;;;;15.43;8.53;;;3.60;99.90;;;;;;5072747;28;20631;-70
2021/11/28 10:27:46;;;;;;;15.47;8.90;;;3.60;99.90;;;;;;5070583;28;20201;-70
2021/11/28 10:30:17;;;;;;;19.30;10.37;;;3.50;99.90;;;;;;5070629;28;20203;-70
2021/11/28 10:32:50;;;;;;;18.40;9.57;;;3.50;99.90;;;;;;5067505;28;20212;-70
2021/11/28 10:35:19;;;;;;;17.47;9.77;;;3.50;99.90;;;;;;5071268;28;20225;-70
2021/11/28 10:37:48;;;;;;;19.10;10.10;;;3.50;99.90;;;;;;5069066;28;20574;-70
2021/11/28 10:40:20;;;;;;;20.27;10.10;;;3.60;99.90;;;;;;5067297;28;20204;-70
2021/11/28 10:42:48;;;;;;;18.10;9.90;;;3.70;99.90;;;;;;5077913;28;20295;-70
2021/11/28 10:45:17;;;;;;;17.33;9.47;;;3.70;99.90;;;;;;5070318;28;20615;-70
2021/11/28 10:47:46;;;;;;;14.63;8.33;;;3.80;99.90;;;;;;5070344;28;20218;-70
2021/11/28 10:50:20;;;;;;;14.23;8.70;;;3.80;99.90;;;;;;5067337;28;20406;-70
2021/11/28 10:52:50;;;;;;;16.80;9.00;;;3.80;99.90;;;;;;5067840;28;20214;-70
2021/11/28 10:55:23;;;;;;;18.87;9.97;;;3.80;99.90;;;;;;5067378;28;20233;-70
2021/11/28 10:58:06;;;;;;;16.70;9.70;;;3.90;99.90;;;;;;5072310;28;20207;-70
2021/11/28 11:00:34;;;;;;;17.80;9.13;;;4.00;99.90;;;;;;5069440;28;20678;-71
2021/11/28 11:03:13;;;;;;;22.07;9.90;;;4.00;99.90;;;;;;5071507;28;20202;-70
2021/11/28 11:05:42;;;;;;;17.63;9.80;;;4.10;99.90;;;;;;5072077;28;20244;-70
2021/11/28 11:08:09;;;;;;;19.53;11.23;;;4.20;99.90;;;;;;5067341;28;20203;-69
2021/11/28 11:10:36;;;;;;;17.93;9.70;;;4.20;99.90;;;;;;5056531;28;20656;-70
2021/11/28 11:13:05;;;;;;;22.83;12.17;;;4.20;99.90;;;;;;5068173;28;20208;-70
2021/11/28 11:15:40;;;;;;;21.77;12.53;;;4.20;99.90;;;;;;5071101;28;20246;-70
2021/11/28 11:18:10;;;;;;;18.43;9.73;;;4.30;99.90;;;;;;5073260;28;20293;-70
2021/11/28 11:20:39;;;;;;;17.27;9.30;;;4.30;99.90;;;;;;5074115;28;20243;-70
2021/11/28 11:23:36;;;;;;;19.17;9.33;;;4.30;99.90;;;;;;5068999;28;20225;-70
2021/11/28 11:26:18;;;;;;;17.70;10.07;;;4.40;99.90;;;;;;5076909;28;20206;-70
2021/11/28 11:29:06;;;;;;;19.13;10.13;;;4.50;99.90;;;;;;5072852;28;20202;-70
2021/11/28 11:31:35;;;;;;;22.30;11.10;;;4.60;99.90;;;;;;5077492;28;20213;-70
2021/11/28 11:34:03;;;;;;;17.07;10.07;;;4.70;99.90;;;;;;5072001;28;20222;-69
2021/11/28 11:36:59;;;;;;;19.77;10.57;;;4.70;99.90;;;;;;5081206;28;20800;-70
2021/11/28 11:39:29;;;;;;;19.60;10.23;;;4.60;99.90;;;;;;5065236;28;20198;-70
2021/11/28 11:41:56;;;;;;;18.90;10.83;;;4.50;99.90;;;;;;5075241;28;20209;-70
2021/11/28 11:44:25;;;;;;;19.60;10.93;;;4.50;99.90;;;;;;5070916;28;20202;-71
2021/11/28 11:46:53;;;;;;;20.43;10.83;;;4.50;99.90;;;;;;5076079;28;20204;-70
2021/11/28 11:49:21;;;;;;;20.53;10.30;;;4.50;99.90;;;;;;5069711;28;20209;-69
2021/11/28 11:51:49;;;;;;;21.83;11.20;;;4.50;99.90;;;;;;5067408;28;20214;-70
2021/11/28 11:54:21;;;;;;;20.77;11.60;;;4.50;99.90;;;;;;5069036;28;20222;-70
2021/11/28 11:56:56;;;;;;;20.83;11.30;;;4.50;99.90;;;;;;5075272;28;20210;-70
2021/11/28 11:59:29;;;;;;;21.60;12.13;;;4.40;99.90;;;;;;5076846;28;20735;-70
2021/11/28 12:02:01;;;;;;;22.53;13.23;;;4.40;99.90;;;;;;5073267;28;20218;-69
2021/11/28 12:04:39;;;;;;;21.33;11.77;;;4.50;99.90;;;;;;5071143;28;20276;-70
2021/11/28 12:07:06;;;;;;;22.73;11.60;;;4.50;99.90;;;;;;5068401;28;20210;-70
2021/11/28 12:09:35;;;;;;;21.07;11.63;;;4.50;99.90;;;;;;5075972;28;20578;-69
2021/11/28 12:12:06;;;;;;;21.13;11.37;;;4.40;99.90;;;;;;5066752;28;20217;-70
2021/11/28 12:14:34;;;;;;;22.97;11.33;;;4.50;99.90;;;;;;5062439;28;20237;-71
2021/11/28 12:17:01;;;;;;;20.53;11.07;;;4.40;99.90;;;;;;5066389;28;20206;-71
2021/11/28 12:19:39;;;;;;;25.57;13.03;;;4.50;99.90;;;;;;5078277;28;20209;-70
2021/11/28 12:22:06;;;;;;;23.27;11.53;;;4.50;99.90;;;;;;5065559;28;20220;-70
2021/11/28 12:24:33;;;;;;;23.00;12.07;;;4.50;99.90;;;;;;5067262;28;20684;-71
2021/11/28 12:27:02;;;;;;;23.60;11.93;;;4.50;99.90;;;;;;5061211;28;20376;-70
2021/11/28 12:29:42;;;;;;;22.57;12.93;;;4.50;99.90;;;;;;5065548;28;20210;-71
2021/11/28 12:32:25;;;;;;;18.10;11.27;;;4.50;99.90;;;;;;5067108;28;20685;-71
2021/11/28 12:34:55;;;;;;;21.57;12.23;;;4.50;99.90;;;;;;5063217;28;20925;-72
2021/11/28 12:37:26;;;;;;;21.63;11.93;;;4.50;99.90;;;;;;5067375;28;20221;-71
2021/11/28 12:39:56;;;;;;;21.17;11.90;;;4.50;99.90;;;;;;5069908;28;20229;-72
2021/11/28 12:42:24;;;;;;;23.20;12.67;;;4.50;99.90;;;;;;5070729;28;20206;-71
2021/11/28 12:45:26;;;;;;;21.40;11.97;;;4.50;99.90;;;;;;5064282;28;20609;-71
2021/11/28 12:48:05;;;;;;;28.57;13.60;;;4.40;99.90;;;;;;5066526;28;20217;-71
2021/11/28 12:50:57;;;;;;;33.77;15.40;;;4.40;99.90;;;;;;5066709;28;20206;-71
2021/11/28 12:53:29;;;;;;;24.30;14.40;;;4.30;99.90;;;;;;5063062;28;20678;-72
2021/11/28 12:56:24;;;;;;;24.97;13.93;;;4.40;99.90;;;;;;5071294;28;20298;-72
2021/11/28 12:59:21;;;;;;;23.23;12.87;;;4.40;99.90;;;;;;5070496;28;20399;-72
2021/11/28 13:01:52;;;;;;;25.37;12.87;;;4.40;99.90;;;;;;5065130;28;20221;-72